Map

Track Data

SID SEASON NUMBER BASIN SUBBASIN NAME ISO_TIME NATURE LAT LON WMO_WIND WMO_PRES WMO_AGENCY TRACK_TYPE DIST2LAND LANDFALL IFLAG USA_AGENCY USA_ATCF_ID USA_LAT USA_LON USA_RECORD USA_STATUS USA_WIND USA_PRES USA_SSHS USA_R34_NE USA_R34_SE USA_R34_SW USA_R34_NW USA_R50_NE USA_R50_SE USA_R50_SW USA_R50_NW USA_R64_NE USA_R64_SE USA_R64_SW USA_R64_NW USA_POCI USA_ROCI USA_RMW USA_EYE TOKYO_LAT TOKYO_LON TOKYO_GRADE TOKYO_WIND TOKYO_PRES TOKYO_R50_DIR TOKYO_R50_LONG TOKYO_R50_SHORT TOKYO_R30_DIR TOKYO_R30_LONG TOKYO_R30_SHORT TOKYO_LAND CMA_LAT CMA_LON CMA_CAT CMA_WIND CMA_PRES HKO_LAT HKO_LON HKO_CAT HKO_WIND HKO_PRES NEWDELHI_LAT NEWDELHI_LON NEWDELHI_GRADE NEWDELHI_WIND NEWDELHI_PRES NEWDELHI_CI NEWDELHI_DP NEWDELHI_POCI REUNION_LAT REUNION_LON REUNION_TYPE REUNION_WIND REUNION_PRES REUNION_TNUM REUNION_CI REUNION_RMW REUNION_R34_NE REUNION_R34_SE REUNION_R34_SW REUNION_R34_NW REUNION_R50_NE REUNION_R50_SE REUNION_R50_SW REUNION_R50_NW REUNION_R64_NE REUNION_R64_SE REUNION_R64_SW REUNION_R64_NW BOM_LAT BOM_LON BOM_TYPE BOM_WIND BOM_PRES BOM_TNUM BOM_CI BOM_RMW BOM_R34_NE BOM_R34_SE BOM_R34_SW BOM_R34_NW BOM_R50_NE BOM_R50_SE BOM_R50_SW BOM_R50_NW BOM_R64_NE BOM_R64_SE BOM_R64_SW BOM_R64_NW BOM_ROCI BOM_POCI BOM_EYE BOM_POS_METHOD BOM_PRES_METHOD NADI_LAT NADI_LON NADI_CAT NADI_WIND NADI_PRES WELLINGTON_LAT WELLINGTON_LON WELLINGTON_WIND WELLINGTON_PRES DS824_LAT DS824_LON DS824_STAGE DS824_WIND DS824_PRES TD9636_LAT TD9636_LON TD9636_STAGE TD9636_WIND TD9636_PRES TD9635_LAT TD9635_LON TD9635_WIND TD9635_PRES TD9635_ROCI NEUMANN_LAT NEUMANN_LON NEUMANN_CLASS NEUMANN_WIND NEUMANN_PRES MLC_LAT MLC_LON MLC_CLASS MLC_WIND MLC_PRES USA_GUST BOM_GUST BOM_GUST_PER REUNION_GUST REUNION_GUST_PER USA_SEAHGT USA_SEARAD_NE USA_SEARAD_SE USA_SEARAD_SW USA_SEARAD_NW STORM_SPEED STORM_DIR
1894032S11059 1894 4 SI MM NOT_NAMED 1894-02-01 06:00:00 NR -10.5000 59.1000 reunion spur-split 1040 1030 _____O________ -1 -10.5000 59.1000 99 9.90000 2 263
1894032S11059 1894 4 SI MM NOT_NAMED 1894-02-01 09:00:00 NR -10.5121 59.0004 spur-split 1030 1019 _____P________ -1 -10.5121 59.0004 99 2 263
1894032S11059 1894 4 SI MM NOT_NAMED 1894-02-01 12:00:00 NR -10.5266 58.8877 spur-split 1019 1009 _____P________ -1 -10.5266 58.8877 99 3 262
1894032S11059 1894 4 SI MM NOT_NAMED 1894-02-01 15:00:00 NR -10.5461 58.7488 spur-split 998 984 _____P________ -1 -10.5461 58.7488 99 3 262
1894032S11059 1894 4 SI MM NOT_NAMED 1894-02-01 18:00:00 NR -10.5728 58.5706 spur-split 984 963 _____P________ -1 -10.5728 58.5706 99 4 261
1894032S11059 1894 4 SI MM NOT_NAMED 1894-02-01 21:00:00 NR -10.6093 58.3399 spur-split 953 929 _____P________ -1 -10.6093 58.3399 99 5 261
1894032S11059 1894 4 SI MM NOT_NAMED 1894-02-02 00:00:00 NR -10.6578 58.0434 spur-split 918 887 _____P________ -1 -10.6578 58.0434 99 7 260
1894032S11059 1894 4 SI MM NOT_NAMED 1894-02-02 03:00:00 NR -10.7207 57.6679 spur-split 887 832 _____P________ -1 -10.7207 57.6679 99 8 260
1894032S11059 1894 4 SI MM NOT_NAMED 1894-02-02 06:00:00 NR -10.8000 57.2000 reunion spur-split 832 776 _____O________ -1 -10.8000 57.2000 99 9.90000 10 260
1894032S11059 1894 4 SI MM NOT_NAMED 1894-02-02 09:00:00 NR -10.8972 56.6320 spur-split 766 700 _____P________ -1 -10.8972 56.6320 99 12 260
1894032S11059 1894 4 SI MM NOT_NAMED 1894-02-02 12:00:00 NR -11.0116 55.9796 spur-split 700 624 _____P________ -1 -11.0116 55.9796 99 14 260
1894032S11059 1894 4 SI MM NOT_NAMED 1894-02-02 15:00:00 NR -11.1419 55.2643 spur-split 624 545 _____P________ -1 -11.1419 55.2643 99 15 259
1894032S11059 1894 4 SI MM NOT_NAMED 1894-02-02 18:00:00 NR -11.2870 54.5075 spur-split 535 460 _____P________ -1 -11.2870 54.5075 99 15 259
1894032S11059 1894 4 SI MM NOT_NAMED 1894-02-02 21:00:00 NR -11.4459 53.7311 spur-split 450 371 _____P________ -1 -11.4459 53.7311 99 16 258
1894032S11059 1894 4 SI MM NOT_NAMED 1894-02-03 00:00:00 NR -11.6180 52.9566 spur-split 371 283 _____P________ -1 -11.6180 52.9566 99 15 257
1894032S11059 1894 4 SI MM NOT_NAMED 1894-02-03 03:00:00 NR -11.8028 52.2057 spur-split 283 206 _____P________ -1 -11.8028 52.2057 99 15 255
1894032S11059 1894 4 SI MM NOT_NAMED 1894-02-03 06:00:00 NR -12.0000 51.5000 reunion spur-split 206 140 _____O________ -1 -12.0000 51.5000 99 9.90000 13 253
1894032S11059 1894 4 SI MM NOT_NAMED 1894-02-03 09:00:00 NR -12.1978 50.8908 spur-split 140 77 _____P________ -1 -12.1978 50.8908 99 12 251
1894032S11059 1894 4 SI MM NOT_NAMED 1894-02-03 12:00:00 NR -12.4102 50.3136 spur-split 77 24 _____P________ -1 -12.4102 50.3136 99 12 248
1894032S11059 1894 4 SI MM NOT_NAMED 1894-02-03 15:00:00 NR -12.6357 49.7680 spur-split 24 0 _____P________ -1 -12.6357 49.7680 99 11 246
1894032S11059 1894 4 SI MM NOT_NAMED 1894-02-03 18:00:00 NR -12.8725 49.2536 spur-split 0 0 _____P________ -1 -12.8725 49.2536 99 11 244
1894032S11059 1894 4 SI MM NOT_NAMED 1894-02-03 21:00:00 NR -13.1190 48.7699 spur-split 0 0 _____P________ -1 -13.1190 48.7699 99 10 241
1894032S11059 1894 4 SI MM NOT_NAMED 1894-02-04 00:00:00 NR -13.3736 48.3165 spur-split 22 0 _____P________ -1 -13.3736 48.3165 99 10 239
1894032S11059 1894 4 SI MM NOT_NAMED 1894-02-04 03:00:00 NR -13.6345 47.8933 spur-split 10 10 _____P________ -1 -13.6345 47.8933 99 10 236
1894032S11059 1894 4 SI MM NOT_NAMED 1894-02-04 06:00:00 NR -13.9000 47.5000 reunion spur-split 43 43 _____O________ -1 -13.9000 47.5000 99 9.90000 9 238
1894032S11059 1894 4 SI MM NOT_NAMED 1894-02-04 09:00:00 NR -14.1202 47.0905 spur-split 72 72 _____P________ -1 -14.1202 47.0905 99 9 240
1894032S11059 1894 4 SI MM NOT_NAMED 1894-02-04 12:00:00 NR -14.3421 46.7108 spur-split 93 85 _____P________ -1 -14.3421 46.7108 99 8 237
1894032S11059 1894 4 SI MM NOT_NAMED 1894-02-04 15:00:00 NR -14.5727 46.3618 spur-split 89 84 _____P________ -1 -14.5727 46.3618 99 8 234
1894032S11059 1894 4 SI MM NOT_NAMED 1894-02-04 18:00:00 NR -14.8190 46.0440 spur-split 93 81 _____P________ -1 -14.8190 46.0440 99 8 229
1894032S11059 1894 4 SI MM NOT_NAMED 1894-02-04 21:00:00 NR -15.0879 45.7582 spur-split 81 56 _____P________ -1 -15.0879 45.7582 99 8 223
1894032S11059 1894 4 SI MM NOT_NAMED 1894-02-05 00:00:00 NR -15.3864 45.5052 spur-split 56 35 _____P________ -1 -15.3864 45.5052 99 8 216
1894032S11059 1894 4 SI MM NOT_NAMED 1894-02-05 03:00:00 NR -15.7215 45.2855 spur-split 35 0 _____P________ -1 -15.7215 45.2855 99 8 209
1894032S11059 1894 4 SI MM NOT_NAMED 1894-02-05 06:00:00 NR -16.1000 45.1000 reunion spur-split 0 0 _____O________ -1 -16.1000 45.1000 99 9.90000 9 205
1894032S11059 1894 4 SI MM NOT_NAMED 1894-02-05 09:00:00 NR -16.5601 44.8837 spur-split 0 0 _____P________ -1 -16.5601 44.8837 99 10 202
1894032S11059 1894 4 SI MM NOT_NAMED 1894-02-05 12:00:00 NR -17.0673 44.6983 spur-split 0 0 _____P________ -1 -17.0673 44.6983 99 11 197
1894032S11059 1894 4 SI MM NOT_NAMED 1894-02-05 15:00:00 NR -17.6090 44.5482 spur-split 0 0 _____P________ -1 -17.6090 44.5482 99 11 193
1894032S11059 1894 4 SI MM NOT_NAMED 1894-02-05 18:00:00 NR -18.1729 44.4383 spur-split 0 0 _____P________ -1 -18.1729 44.4383 99 12 188
1894032S11059 1894 4 SI MM NOT_NAMED 1894-02-05 21:00:00 NR -18.7464 44.3734 spur-split 0 0 _____P________ -1 -18.7464 44.3734 99 12 184
1894032S11059 1894 4 SI MM NOT_NAMED 1894-02-06 00:00:00 NR -19.3171 44.3587 spur-split 0 0 _____P________ -1 -19.3171 44.3587 99 11 0
1894032S11059 1894 4 SI MM NOT_NAMED 1894-02-06 03:00:00 NR -19.8725 44.3991 spur-split 10 0 _____P________ -1 -19.8725 44.3991 99 11 173
1894032S11059 1894 4 SI MM NOT_NAMED 1894-02-06 06:00:00 NR -20.4000 44.5000 reunion spur-split 0 0 _____O________ -1 -20.4000 44.5000 99 9.90000 11 165
1894032S11059 1894 4 SI MM NOT_NAMED 1894-02-06 09:00:00 NR -20.8999 44.6942 spur-split 0 0 _____P________ -1 -20.8999 44.6942 99 11 156
1894032S11059 1894 4 SI MM NOT_NAMED 1894-02-06 12:00:00 NR -21.3827 44.9584 spur-split 0 0 _____P________ -1 -21.3827 44.9584 99 11 150
1894032S11059 1894 4 SI MM NOT_NAMED 1894-02-06 15:00:00 NR -21.8425 45.2749 spur-split 0 0 _____P________ -1 -21.8425 45.2749 99 11 145
1894032S11059 1894 4 SI MM NOT_NAMED 1894-02-06 18:00:00 NR -22.2736 45.6256 spur-split 0 0 _____P________ -1 -22.2736 45.6256 99 11 141
1894032S11059 1894 4 SI MM NOT_NAMED 1894-02-06 21:00:00 NR -22.6703 45.9923 spur-split 0 0 _____P________ -1 -22.6703 45.9923 99 10 138
1894032S11059 1894 4 SI MM NOT_NAMED 1894-02-07 00:00:00 NR -23.0272 46.3563 spur-split 0 0 _____P________ -1 -23.0272 46.3563 99 9 136
1894032S11059 1894 4 SI MM NOT_NAMED 1894-02-07 03:00:00 NR -23.3388 46.6986 spur-split 0 0 _____P________ -1 -23.3388 46.6986 99 8 134
1894032S11059 1894 4 SI MM NOT_NAMED 1894-02-07 06:00:00 NR -23.6000 47.0000 reunion spur-split 0 0 _____O________ -1 -23.6000 47.0000 99 9.90000 7 133
1894032S11059 1894 4 SI MM NOT_NAMED 1894-02-07 09:00:00 NR -23.8078 47.2458 spur-split 0 0 _____P________ -1 -23.8078 47.2458 99 5 132
1894032S11059 1894 4 SI MM NOT_NAMED 1894-02-07 12:00:00 NR -23.9673 47.4385 spur-split 0 0 _____P________ -1 -23.9673 47.4385 99 4 132
1894032S11059 1894 4 SI MM NOT_NAMED 1894-02-07 15:00:00 NR -24.0855 47.5857 spur-split 15 15 _____P________ -1 -24.0855 47.5857 99 3 131
1894032S11059 1894 4 SI MM NOT_NAMED 1894-02-07 18:00:00 NR -24.1694 47.6946 spur-split 30 30 _____P________ -1 -24.1694 47.6946 99 2 129
1894032S11059 1894 4 SI MM NOT_NAMED 1894-02-07 21:00:00 NR -24.2260 47.7728 spur-split 37 37 _____P________ -1 -24.2260 47.7728 99 2 129
1894032S11059 1894 4 SI MM NOT_NAMED 1894-02-08 00:00:00 NR -24.2620 47.8280 spur-split 42 42 _____P________ -1 -24.2620 47.8280 99 1 124
1894032S11059 1894 4 SI MM NOT_NAMED 1894-02-08 03:00:00 NR -24.2844 47.8679 spur-split 51 51 _____P________ -1 -24.2844 47.8679 99 1 119
1894032S11059 1894 4 SI MM NOT_NAMED 1894-02-08 06:00:00 NR -24.3000 47.9000 reunion spur-split 51 _____O________ -1 -24.3000 47.9000 99 9.90000 1 113

About IBTrACS Database

This database is a web-friendly format of International Best Track Archive for Climate Stewardship (IBTrACS), a global best track data archive curated by NOAA dating back to 1842.

Updated: 2021-10-19